Time,TemperatureF,DewpointF,PressureIn,WindDirection,WindDirectionDegrees,WindSpeedMPH,WindSpeedGustMPH,Humidity,HourlyPrecipIn,Conditions,Clouds,dailyrainin,SoftwareType,DateUTC
2013-01-18 00:05:00,38.0,31.1,30.00,NNW,330,3.0,5.0,76,0.00,,,0.00,Wunderground v.1.15,2013-01-18 05:05:00,
2013-01-18 00:10:00,38.0,31.4,29.98,NNE,30,4.0,4.0,77,0.00,,,0.00,Wunderground v.1.15,2013-01-18 05:10:00,
2013-01-18 00:15:00,37.9,31.0,29.97,NNW,339,4.0,4.0,76,0.00,,,0.00,Wunderground v.1.15,2013-01-18 05:15:00,
2013-01-18 00:20:00,37.9,30.7,29.96,NNE,30,4.0,6.0,75,0.00,,,0.00,Wunderground v.1.15,2013-01-18 05:20:00,
2013-01-18 00:25:00,37.7,30.5,29.96,NNE,23,5.0,6.0,75,0.00,,,0.00,Wunderground v.1.15,2013-01-18 05:25:00,
2013-01-18 00:30:00,37.7,30.5,29.98,NNE,20,5.0,5.0,75,0.00,,,0.00,Wunderground v.1.15,2013-01-18 05:30:00,
2013-01-18 00:35:00,37.7,30.8,29.99,North,350,4.0,5.0,76,0.00,,,0.00,Wunderground v.1.15,2013-01-18 05:35:00,
2013-01-18 00:45:00,37.8,30.9,29.98,NNE,27,3.0,4.0,76,0.00,,,0.00,Wunderground v.1.15,2013-01-18 05:45:00,
2013-01-18 00:50:00,37.8,30.9,29.99,North,1,3.0,4.0,76,0.00,,,0.00,Wunderground v.1.15,2013-01-18 05:50:00,
2013-01-18 01:00:00,38.0,31.1,29.97,NE,39,5.0,7.0,76,0.00,,,0.00,Wunderground v.1.15,2013-01-18 06:00:00,
2013-01-18 01:05:00,38.1,31.5,30.00,NNW,340,6.0,7.0,77,0.00,,,0.00,Wunderground v.1.15,2013-01-18 06:05:00,
2013-01-18 01:15:00,38.1,31.5,30.00,NE,36,3.0,6.0,77,0.00,,,0.00,Wunderground v.1.15,2013-01-18 06:15:00,
2013-01-18 01:25:00,38.0,30.4,30.03,NNE,18,5.0,5.0,74,0.00,,,0.00,Wunderground v.1.15,2013-01-18 06:25:00,
2013-01-18 01:30:00,38.0,30.8,30.02,NNE,18,4.0,4.0,75,0.00,,,0.00,Wunderground v.1.15,2013-01-18 06:30:00,
2013-01-18 01:35:00,37.9,30.4,30.02,NNE,27,4.0,5.0,74,0.00,,,0.00,Wunderground v.1.15,2013-01-18 06:35:00,
2013-01-18 01:40:00,37.8,30.3,30.01,NNE,30,4.0,4.0,74,0.00,,,0.00,Wunderground v.1.15,2013-01-18 06:40:00,
2013-01-18 01:45:00,37.7,29.8,30.01,NNE,12,5.0,5.0,73,0.00,,,0.00,Wunderground v.1.15,2013-01-18 06:45:00,
2013-01-18 01:50:00,37.7,30.2,30.02,North,356,5.0,5.0,74,0.00,,,0.00,Wunderground v.1.15,2013-01-18 06:50:00,
2013-01-18 02:00:00,37.7,30.2,30.01,NNE,30,4.0,6.0,74,0.00,,,0.00,Wunderground v.1.15,2013-01-18 07:00:00,
2013-01-18 02:05:00,37.6,29.7,30.01,North,354,4.0,6.0,73,0.00,,,0.00,Wunderground v.1.15,2013-01-18 07:05:00,
2013-01-18 02:10:00,37.6,30.1,30.02,North,358,4.0,4.0,74,0.00,,,0.00,Wunderground v.1.15,2013-01-18 07:10:00,
2013-01-18 02:15:00,37.6,30.1,30.03,NNW,333,3.0,4.0,74,0.00,,,0.00,Wunderground v.1.15,2013-01-18 07:15:00,
2013-01-18 02:20:00,37.6,30.4,30.02,NNE,18,3.0,3.0,75,0.00,,,0.00,Wunderground v.1.15,2013-01-18 07:20:00,
2013-01-18 02:25:00,37.6,30.4,30.03,NNW,335,3.0,3.0,75,0.00,,,0.00,Wunderground v.1.15,2013-01-18 07:25:00,
2013-01-18 02:35:00,37.5,30.3,30.03,NNE,23,3.0,3.0,75,0.00,,,0.00,Wunderground v.1.15,2013-01-18 07:35:00,
2013-01-18 02:40:00,37.4,30.5,30.02,NNE,20,3.0,3.0,76,0.00,,,0.00,Wunderground v.1.15,2013-01-18 07:40:00,
2013-01-18 02:45:00,37.4,30.5,30.04,North,354,3.0,4.0,76,0.00,,,0.00,Wunderground v.1.15,2013-01-18 07:45:00,
2013-01-18 02:50:00,37.3,30.1,30.03,NNW,339,4.0,4.0,75,0.00,,,0.00,Wunderground v.1.15,2013-01-18 07:50:00,
2013-01-18 03:00:00,37.1,29.6,30.03,NNW,335,5.0,5.0,74,0.00,,,0.00,Wunderground v.1.15,2013-01-18 08:00:00,
2013-01-18 03:05:00,37.0,29.5,30.03,NNE,16,5.0,9.0,74,0.00,,,0.00,Wunderground v.1.15,2013-01-18 08:05:00,
2013-01-18 03:10:00,36.9,28.7,30.03,NNE,32,6.0,8.0,72,0.00,,,0.00,Wunderground v.1.15,2013-01-18 08:10:00,
2013-01-18 03:15:00,36.8,28.3,30.03,NE,39,7.0,8.0,71,0.00,,,0.00,Wunderground v.1.15,2013-01-18 08:15:00,
2013-01-18 03:20:00,36.7,28.5,30.04,NNE,25,7.0,9.0,72,0.00,,,0.00,Wunderground v.1.15,2013-01-18 08:20:00,
2013-01-18 03:25:00,36.5,28.3,30.03,NNE,27,7.0,9.0,72,0.00,,,0.00,Wunderground v.1.15,2013-01-18 08:25:00,
2013-01-18 03:30:00,36.5,28.0,30.04,NE,35,6.0,6.0,71,0.00,,,0.00,Wunderground v.1.15,2013-01-18 08:30:00,
2013-01-18 03:35:00,36.4,27.9,30.04,NNE,22,5.0,7.0,71,0.00,,,0.00,Wunderground v.1.15,2013-01-18 08:35:00,
2013-01-18 03:40:00,36.3,28.1,30.04,North,8,5.0,7.0,72,0.00,,,0.00,Wunderground v.1.15,2013-01-18 08:40:00,
2013-01-18 03:45:00,36.2,27.7,30.04,NNE,30,6.0,7.0,71,0.00,,,0.00,Wunderground v.1.15,2013-01-18 08:45:00,
2013-01-18 03:50:00,36.1,27.6,30.04,NNE,20,7.0,7.0,71,0.00,,,0.00,Wunderground v.1.15,2013-01-18 08:50:00,
2013-01-18 04:00:00,35.9,27.4,30.05,NNE,22,7.0,7.0,71,0.00,,,0.00,Wunderground v.1.15,2013-01-18 09:00:00,
2013-01-18 04:05:00,35.8,27.3,30.05,NNE,23,7.0,7.0,71,0.00,,,0.00,Wunderground v.1.15,2013-01-18 09:05:00,
2013-01-18 04:15:00,35.5,27.4,30.06,NE,38,8.0,8.0,72,0.00,,,0.00,Wunderground v.1.15,2013-01-18 09:15:00,
2013-01-18 04:20:00,35.3,27.2,30.06,NNE,15,9.0,11.0,72,0.00,,,0.00,Wunderground v.1.15,2013-01-18 09:20:00,
2013-01-18 04:25:00,34.9,26.8,30.07,NNE,24,10.0,11.0,72,0.00,,,0.00,Wunderground v.1.15,2013-01-18 09:25:00,
2013-01-18 04:30:00,34.6,26.8,30.08,NE,37,10.0,11.0,73,0.00,,,0.00,Wunderground v.1.15,2013-01-18 09:30:00,
2013-01-18 04:40:00,33.9,26.5,30.08,NNE,31,10.0,15.0,74,0.00,,,0.00,Wunderground v.1.15,2013-01-18 09:40:00,
2013-01-18 04:45:00,33.2,26.1,30.09,NNE,27,10.0,15.0,75,0.00,,,0.00,Wunderground v.1.15,2013-01-18 09:45:00,
2013-01-18 04:50:00,32.8,26.1,30.10,NE,39,10.0,10.0,76,0.00,,,0.00,Wunderground v.1.15,2013-01-18 09:50:00,
2013-01-18 04:55:00,32.6,26.2,30.10,NNE,17,8.0,10.0,77,0.00,,,0.00,Wunderground v.1.15,2013-01-18 09:55:00,
2013-01-18 05:00:00,32.6,25.9,30.10,NNW,336,7.0,7.0,76,0.00,,,0.00,Wunderground v.1.15,2013-01-18 10:00:00,
2013-01-18 05:05:00,32.8,26.4,30.11,North,350,6.0,7.0,77,0.00,,,0.00,Wunderground v.1.15,2013-01-18 10:05:00,
2013-01-18 05:10:00,32.6,26.2,30.11,NNE,18,6.0,6.0,77,0.00,,,0.00,Wunderground v.1.15,2013-01-18 10:10:00,
2013-01-18 05:15:00,32.5,26.4,30.11,NNE,23,7.0,7.0,78,0.00,,,0.00,Wunderground v.1.15,2013-01-18 10:15:00,
2013-01-18 05:25:00,32.4,25.7,30.11,NNE,26,5.0,6.0,76,0.00,,,0.00,Wunderground v.1.15,2013-01-18 10:25:00,
2013-01-18 05:30:00,32.4,25.4,30.11,North,4,5.0,6.0,75,0.00,,,0.00,Wunderground v.1.15,2013-01-18 10:30:00,
2013-01-18 05:40:00,32.5,25.5,30.12,NNE,15,5.0,5.0,75,0.00,,,0.00,Wunderground v.1.15,2013-01-18 10:40:00,
2013-01-18 05:45:00,32.6,25.6,30.13,NW,326,6.0,10.0,75,0.00,,,0.00,Wunderground v.1.15,2013-01-18 10:45:00,
2013-01-18 05:50:00,32.7,25.3,30.13,North,5,7.0,8.0,74,0.00,,,0.00,Wunderground v.1.15,2013-01-18 10:50:00,
2013-01-18 05:55:00,32.7,25.0,30.14,North,9,8.0,8.0,73,0.00,,,0.00,Wunderground v.1.15,2013-01-18 10:55:00,
2013-01-18 06:00:00,32.7,25.0,30.14,NNE,20,8.0,8.0,73,0.00,,,0.00,Wunderground v.1.15,2013-01-18 11:00:00,
2013-01-18 06:05:00,32.5,24.1,30.15,NE,39,8.0,9.0,71,0.00,,,0.00,Wunderground v.1.15,2013-01-18 11:05:00,
2013-01-18 06:10:00,32.3,23.9,30.16,North,358,9.0,11.0,71,0.00,,,0.00,Wunderground v.1.15,2013-01-18 11:10:00,
2013-01-18 06:15:00,32.1,23.8,30.16,NNE,32,10.0,11.0,71,0.00,,,0.00,Wunderground v.1.15,2013-01-18 11:15:00,
2013-01-18 06:20:00,32.1,23.8,30.16,NE,34,9.0,9.0,71,0.00,,,0.00,Wunderground v.1.15,2013-01-18 11:20:00,
2013-01-18 06:30:00,31.9,23.9,30.18,NNW,342,8.0,8.0,72,0.00,,,0.00,Wunderground v.1.15,2013-01-18 11:30:00,
2013-01-18 06:35:00,31.8,23.5,30.18,NNW,343,9.0,9.0,71,0.00,,,0.00,Wunderground v.1.15,2013-01-18 11:35:00,
2013-01-18 06:40:00,31.8,23.8,30.19,NNE,15,9.0,15.0,72,0.00,,,0.00,Wunderground v.1.15,2013-01-18 11:40:00,
2013-01-18 06:45:00,31.6,24.3,30.20,North,354,10.0,15.0,74,0.00,,,0.00,Wunderground v.1.15,2013-01-18 11:45:00,
2013-01-18 06:50:00,31.3,23.3,30.20,NNW,333,10.0,10.0,72,0.00,,,0.00,Wunderground v.1.15,2013-01-18 11:50:00,
2013-01-18 06:55:00,31.3,23.6,30.20,NNW,345,9.0,10.0,73,0.00,,,0.00,Wunderground v.1.15,2013-01-18 11:55:00,
2013-01-18 07:05:00,31.3,23.6,30.21,NNW,344,7.0,7.0,73,0.00,,,0.00,Wunderground v.1.15,2013-01-18 12:05:00,
2013-01-18 07:10:00,31.4,23.1,30.21,NNW,327,7.0,7.0,71,0.00,,,0.00,Wunderground v.1.15,2013-01-18 12:10:00,
2013-01-18 07:15:00,31.4,23.4,30.21,NNW,330,7.0,7.0,72,0.00,,,0.00,Wunderground v.1.15,2013-01-18 12:15:00,
2013-01-18 07:25:00,31.5,22.5,30.22,NNE,26,9.0,12.0,69,0.00,,,0.00,Wunderground v.1.15,2013-01-18 12:25:00,
2013-01-18 07:30:00,31.5,22.8,30.23,NE,56,9.0,9.0,70,0.00,,,0.00,Wunderground v.1.15,2013-01-18 12:30:00,
2013-01-18 07:40:00,31.3,22.0,30.24,North,353,9.0,13.0,68,0.00,,,0.00,Wunderground v.1.15,2013-01-18 12:40:00,
2013-01-18 07:45:00,31.2,21.9,30.25,North,8,9.0,13.0,68,0.00,,,0.00,Wunderground v.1.15,2013-01-18 12:45:00,
2013-01-18 07:50:00,31.0,21.7,30.25,NNE,20,9.0,9.0,68,0.00,,,0.00,Wunderground v.1.15,2013-01-18 12:50:00,
2013-01-18 07:55:00,31.0,22.0,30.26,NE,34,9.0,11.0,69,0.00,,,0.00,Wunderground v.1.15,2013-01-18 12:55:00,
2013-01-18 08:00:00,31.2,22.5,30.27,NNW,342,9.0,9.0,70,0.00,,,0.00,Wunderground v.1.15,2013-01-18 13:00:00,
2013-01-18 08:05:00,31.4,22.7,30.27,NNW,328,8.0,9.0,70,0.00,,,0.00,Wunderground v.1.15,2013-01-18 13:05:00,
2013-01-18 08:10:00,31.3,22.3,30.27,NW,316,8.0,10.0,69,0.00,,,0.00,Wunderground v.1.15,2013-01-18 13:10:00,
2013-01-18 08:15:00,31.3,22.0,30.28,NNE,12,9.0,14.0,68,0.00,,,0.00,Wunderground v.1.15,2013-01-18 13:15:00,
2013-01-18 08:25:00,31.0,21.0,30.29,NNW,345,11.0,13.0,66,0.00,,,0.00,Wunderground v.1.15,2013-01-18 13:25:00,
2013-01-18 08:30:00,31.1,21.4,30.29,NNW,338,11.0,11.0,67,0.00,,,0.00,Wunderground v.1.15,2013-01-18 13:30:00,
2013-01-18 08:35:00,31.3,20.9,30.29,North,349,10.0,11.0,65,0.00,,,0.00,Wunderground v.1.15,2013-01-18 13:35:00,
2013-01-18 08:40:00,31.2,20.4,30.30,NW,319,11.0,13.0,64,0.00,,,0.00,Wunderground v.1.15,2013-01-18 13:40:00,
2013-01-18 08:50:00,29.9,13.9,30.31,NW,324,12.0,12.0,51,0.00,,,0.00,Wunderground v.1.15,2013-01-18 13:50:00,
2013-01-18 08:55:00,29.7,13.8,30.32,NW,319,12.0,12.0,51,0.00,,,0.00,Wunderground v.1.15,2013-01-18 13:55:00,
2013-01-18 09:00:00,29.8,13.9,30.33,NW,321,10.0,10.0,51,0.00,,,0.00,Wunderground v.1.15,2013-01-18 14:00:00,
2013-01-18 09:10:00,30.1,14.1,30.34,North,353,12.0,13.0,51,0.00,,,0.00,Wunderground v.1.15,2013-01-18 14:10:00,
2013-01-18 09:15:00,30.2,12.4,30.34,NW,322,13.0,13.0,47,0.00,,,0.00,Wunderground v.1.15,2013-01-18 14:15:00,
2013-01-18 09:20:00,30.1,11.8,30.35,NNW,330,13.0,14.0,46,0.00,,,0.00,Wunderground v.1.15,2013-01-18 14:20:00,
2013-01-18 09:25:00,30.2,11.9,30.36,WNW,302,12.0,14.0,46,0.00,,,0.00,Wunderground v.1.15,2013-01-18 14:25:00,
2013-01-18 09:30:00,30.2,11.9,30.36,NNW,343,11.0,11.0,46,0.00,,,0.00,Wunderground v.1.15,2013-01-18 14:30:00,
2013-01-18 09:35:00,30.2,12.8,30.36,NW,319,12.0,15.0,48,0.00,,,0.00,Wunderground v.1.15,2013-01-18 14:35:00,
2013-01-18 09:40:00,30.1,13.2,30.37,NNW,348,13.0,13.0,49,0.00,,,0.00,Wunderground v.1.15,2013-01-18 14:40:00,
2013-01-18 09:45:00,30.2,13.3,30.37,North,350,12.0,13.0,49,0.00,,,0.00,Wunderground v.1.15,2013-01-18 14:45:00,
2013-01-18 09:50:00,30.0,15.3,30.38,NNE,15,12.0,12.0,54,0.00,,,0.00,Wunderground v.1.15,2013-01-18 14:50:00,
2013-01-18 09:55:00,29.9,16.1,30.39,NNE,18,12.0,12.0,56,0.00,,,0.00,Wunderground v.1.15,2013-01-18 14:55:00,
2013-01-18 10:05:00,29.7,11.4,30.39,WNW,300,11.0,11.0,46,0.00,,,0.00,Wunderground v.1.15,2013-01-18 15:05:00,
2013-01-18 10:10:00,29.7,10.4,30.39,NNW,345,12.0,16.0,44,0.00,,,0.00,Wunderground v.1.15,2013-01-18 15:10:00,
2013-01-18 10:15:00,29.6,10.3,30.39,NNW,332,12.0,16.0,44,0.00,,,0.00,Wunderground v.1.15,2013-01-18 15:15:00,
2013-01-18 10:20:00,30.0,13.1,30.39,NE,38,12.0,12.0,49,0.00,,,0.00,Wunderground v.1.15,2013-01-18 15:20:00,
2013-01-18 10:30:00,30.0,13.1,30.39,NW,309,11.0,11.0,49,0.00,,,0.00,Wunderground v.1.15,2013-01-18 15:30:00,
2013-01-18 10:35:00,30.0,11.7,30.39,NNW,335,10.0,11.0,46,0.00,,,0.00,Wunderground v.1.15,2013-01-18 15:35:00,
2013-01-18 10:40:00,29.8,11.0,30.39,WNW,300,11.0,11.0,45,0.00,,,0.00,Wunderground v.1.15,2013-01-18 15:40:00,
2013-01-18 10:45:00,30.0,12.7,30.39,NNW,335,11.0,11.0,48,0.00,,,0.00,Wunderground v.1.15,2013-01-18 15:45:00,
2013-01-18 10:50:00,30.0,12.7,30.39,NE,41,9.0,12.0,48,0.00,,,0.00,Wunderground v.1.15,2013-01-18 15:50:00,
2013-01-18 10:55:00,30.1,14.6,30.39,North,6,10.0,18.0,52,0.00,,,0.00,Wunderground v.1.15,2013-01-18 15:55:00,
2013-01-18 11:05:00,29.7,12.8,30.40,NW,321,13.0,13.0,49,0.00,,,0.00,Wunderground v.1.15,2013-01-18 16:05:00,
2013-01-18 11:10:00,29.7,11.9,30.40,NW,312,12.0,12.0,47,0.00,,,0.00,Wunderground v.1.15,2013-01-18 16:10:00,
2013-01-18 11:15:00,29.7,11.9,30.39,North,354,12.0,12.0,47,0.00,,,0.00,Wunderground v.1.15,2013-01-18 16:15:00,
2013-01-18 11:25:00,29.6,11.8,30.39,NW,319,12.0,13.0,47,0.00,,,0.00,Wunderground v.1.15,2013-01-18 16:25:00,
2013-01-18 11:30:00,29.5,12.2,30.39,NE,41,10.0,12.0,48,0.00,,,0.00,Wunderground v.1.15,2013-01-18 16:30:00,
2013-01-18 11:40:00,30.1,13.7,30.39,NNE,18,9.0,9.0,50,0.00,,,0.00,Wunderground v.1.15,2013-01-18 16:40:00,
2013-01-18 11:45:00,30.1,14.6,30.39,NNE,22,9.0,9.0,52,0.00,,,0.00,Wunderground v.1.15,2013-01-18 16:45:00,
2013-01-18 11:50:00,30.2,13.3,30.39,NW,318,8.0,13.0,49,0.00,,,0.00,Wunderground v.1.15,2013-01-18 16:50:00,
2013-01-18 11:55:00,30.2,13.3,30.39,WNW,300,9.0,13.0,49,0.00,,,0.00,Wunderground v.1.15,2013-01-18 16:55:00,
2013-01-18 12:00:00,30.2,12.4,30.39,WNW,300,9.0,9.0,47,0.00,,,0.00,Wunderground v.1.15,2013-01-18 17:00:00,
2013-01-18 12:05:00,30.6,14.6,30.39,NW,321,9.0,9.0,51,0.00,,,0.00,Wunderground v.1.15,2013-01-18 17:05:00,
2013-01-18 12:10:00,30.4,13.0,30.39,West,280,10.0,10.0,48,0.00,,,0.00,Wunderground v.1.15,2013-01-18 17:10:00,
2013-01-18 12:15:00,30.2,12.8,30.39,NNW,338,10.0,10.0,48,0.00,,,0.00,Wunderground v.1.15,2013-01-18 17:15:00,
2013-01-18 12:20:00,30.3,13.4,30.39,WNW,302,9.0,9.0,49,0.00,,,0.00,Wunderground v.1.15,2013-01-18 17:20:00,
2013-01-18 12:25:00,30.1,12.7,30.39,NW,325,9.0,10.0,48,0.00,,,0.00,Wunderground v.1.15,2013-01-18 17:25:00,
2013-01-18 12:30:00,30.1,12.7,30.39,North,9,9.0,14.0,48,0.00,,,0.00,Wunderground v.1.15,2013-01-18 17:30:00,
2013-01-18 12:35:00,30.0,13.1,30.39,NNW,333,9.0,14.0,49,0.00,,,0.00,Wunderground v.1.15,2013-01-18 17:35:00,
2013-01-18 12:45:00,30.0,13.6,30.39,NNW,344,10.0,14.0,50,0.00,,,0.00,Wunderground v.1.15,2013-01-18 17:45:00,
2013-01-18 12:55:00,30.2,14.2,30.39,NNW,342,10.0,11.0,51,0.00,,,0.00,Wunderground v.1.15,2013-01-18 17:55:00,
2013-01-18 13:00:00,30.3,13.4,30.39,North,1,9.0,11.0,49,0.00,,,0.00,Wunderground v.1.15,2013-01-18 18:00:00,
2013-01-18 13:05:00,30.0,13.1,30.39,NNE,18,9.0,11.0,49,0.00,,,0.00,Wunderground v.1.15,2013-01-18 18:05:00,
2013-01-18 13:10:00,29.9,12.1,30.39,NNE,16,9.0,9.0,47,0.00,,,0.00,Wunderground v.1.15,2013-01-18 18:10:00,
2013-01-18 13:15:00,29.9,13.0,30.39,NNW,346,9.0,9.0,49,0.00,,,0.00,Wunderground v.1.15,2013-01-18 18:15:00,
2013-01-18 13:20:00,30.2,13.3,30.38,NW,321,8.0,8.0,49,0.00,,,0.00,Wunderground v.1.15,2013-01-18 18:20:00,
2013-01-18 13:25:00,30.5,13.6,30.38,NW,304,8.0,8.0,49,0.00,,,0.00,Wunderground v.1.15,2013-01-18 18:25:00,
2013-01-18 13:30:00,30.4,13.0,30.38,NW,316,8.0,9.0,48,0.00,,,0.00,Wunderground v.1.15,2013-01-18 18:30:00,
2013-01-18 13:35:00,30.4,13.5,30.39,NNW,333,8.0,9.0,49,0.00,,,0.00,Wunderground v.1.15,2013-01-18 18:35:00,
2013-01-18 13:45:00,30.5,12.6,30.39,NE,36,8.0,8.0,47,0.00,,,0.00,Wunderground v.1.15,2013-01-18 18:45:00,
2013-01-18 13:50:00,30.6,13.2,30.40,NW,318,8.0,8.0,48,0.00,,,0.00,Wunderground v.1.15,2013-01-18 18:50:00,
2013-01-18 13:55:00,30.5,12.6,30.40,NW,321,8.0,10.0,47,0.00,,,0.00,Wunderground v.1.15,2013-01-18 18:55:00,
2013-01-18 14:00:00,30.7,13.3,30.40,NNW,328,8.0,8.0,48,0.00,,,0.00,Wunderground v.1.15,2013-01-18 19:00:00,
2013-01-18 14:05:00,30.7,11.8,30.41,NW,318,8.0,8.0,45,0.00,,,0.00,Wunderground v.1.15,2013-01-18 19:05:00,
2013-01-18 14:10:00,30.5,11.7,30.41,NNW,335,7.0,7.0,45,0.00,,,0.00,Wunderground v.1.15,2013-01-18 19:10:00,
2013-01-18 14:15:00,30.7,11.8,30.41,NW,319,7.0,7.0,45,0.00,,,0.00,Wunderground v.1.15,2013-01-18 19:15:00,
2013-01-18 14:25:00,30.8,11.9,30.41,NNW,344,8.0,11.0,45,0.00,,,0.00,Wunderground v.1.15,2013-01-18 19:25:00,
2013-01-18 14:30:00,30.8,11.9,30.41,NW,309,7.0,7.0,45,0.00,,,0.00,Wunderground v.1.15,2013-01-18 19:30:00,
2013-01-18 14:35:00,31.0,11.6,30.41,North,9,6.0,8.0,44,0.00,,,0.00,Wunderground v.1.15,2013-01-18 19:35:00,
2013-01-18 14:45:00,31.2,11.8,30.41,NW,326,6.0,8.0,44,0.00,,,0.00,Wunderground v.1.15,2013-01-18 19:45:00,
2013-01-18 14:50:00,31.2,11.3,30.41,WNW,302,6.0,6.0,43,0.00,,,0.00,Wunderground v.1.15,2013-01-18 19:50:00,
2013-01-18 14:55:00,31.1,10.6,30.41,NW,318,6.0,6.0,42,0.00,,,0.00,Wunderground v.1.15,2013-01-18 19:55:00,
2013-01-18 15:05:00,31.0,10.6,30.42,NW,318,4.0,5.0,42,0.00,,,0.00,Wunderground v.1.15,2013-01-18 20:05:00,
2013-01-18 15:10:00,31.0,11.1,30.42,NNW,327,4.0,6.0,43,0.00,,,0.00,Wunderground v.1.15,2013-01-18 20:10:00,
2013-01-18 15:20:00,31.3,11.9,30.42,WNW,294,5.0,5.0,44,0.00,,,0.00,Wunderground v.1.15,2013-01-18 20:20:00,
2013-01-18 15:25:00,31.1,9.6,30.42,WNW,282,5.0,5.0,40,0.00,,,0.00,Wunderground v.1.15,2013-01-18 20:25:00,
2013-01-18 15:30:00,31.2,11.8,30.42,NNW,337,4.0,4.0,44,0.00,,,0.00,Wunderground v.1.15,2013-01-18 20:30:00,
2013-01-18 15:35:00,31.1,10.6,30.42,NW,318,4.0,7.0,42,0.00,,,0.00,Wunderground v.1.15,2013-01-18 20:35:00,
2013-01-18 15:40:00,30.9,9.9,30.42,NW,309,7.0,8.0,41,0.00,,,0.00,Wunderground v.1.15,2013-01-18 20:40:00,
2013-01-18 15:50:00,31.0,10.6,30.42,NW,325,6.0,7.0,42,0.00,,,0.00,Wunderground v.1.15,2013-01-18 20:50:00,
2013-01-18 15:55:00,31.0,10.0,30.43,WNW,302,6.0,7.0,41,0.00,,,0.00,Wunderground v.1.15,2013-01-18 20:55:00,
2013-01-18 16:00:00,31.1,11.2,30.43,WNW,288,5.0,5.0,43,0.00,,,0.00,Wunderground v.1.15,2013-01-18 21:00:00,
2013-01-18 16:05:00,30.9,12.0,30.43,NNW,337,4.0,5.0,45,0.00,,,0.00,Wunderground v.1.15,2013-01-18 21:05:00,
2013-01-18 16:15:00,30.6,10.2,30.43,West,278,4.0,4.0,42,0.00,,,0.00,Wunderground v.1.15,2013-01-18 21:15:00,
2013-01-18 16:20:00,30.5,10.1,30.43,NW,326,4.0,4.0,42,0.00,,,0.00,Wunderground v.1.15,2013-01-18 21:20:00,
2013-01-18 16:25:00,30.4,11.1,30.44,West,277,4.0,4.0,44,0.00,,,0.00,Wunderground v.1.15,2013-01-18 21:25:00,
2013-01-18 16:30:00,30.2,10.4,30.44,NW,308,3.0,4.0,43,0.00,,,0.00,Wunderground v.1.15,2013-01-18 21:30:00,
2013-01-18 16:40:00,30.1,11.8,30.44,NW,312,4.0,4.0,46,0.00,,,0.00,Wunderground v.1.15,2013-01-18 21:40:00,
2013-01-18 16:45:00,30.1,11.8,30.44,NW,308,4.0,7.0,46,0.00,,,0.00,Wunderground v.1.15,2013-01-18 21:45:00,
2013-01-18 16:50:00,29.9,10.6,30.44,WSW,255,3.0,5.0,44,0.00,,,0.00,Wunderground v.1.15,2013-01-18 21:50:00,
2013-01-18 16:55:00,29.7,10.4,30.45,WNW,283,2.0,5.0,44,0.00,,,0.00,Wunderground v.1.15,2013-01-18 21:55:00,
2013-01-18 17:00:00,29.8,11.0,30.45,NW,316,3.0,3.0,45,0.00,,,0.00,Wunderground v.1.15,2013-01-18 22:00:00,
2013-01-18 17:05:00,29.7,10.9,30.45,WNW,288,3.0,3.0,45,0.00,,,0.00,Wunderground v.1.15,2013-01-18 22:05:00,
2013-01-18 17:10:00,29.5,11.2,30.45,West,264,2.0,3.0,46,0.00,,,0.00,Wunderground v.1.15,2013-01-18 22:10:00,
2013-01-18 17:20:00,29.5,12.2,30.46,WNW,296,3.0,3.0,48,0.00,,,0.00,Wunderground v.1.15,2013-01-18 22:20:00,
2013-01-18 17:30:00,29.3,10.6,30.46,WNW,288,2.0,2.0,45,0.00,,,0.00,Wunderground v.1.15,2013-01-18 22:30:00,
2013-01-18 17:35:00,29.3,11.1,30.46,WNW,294,2.0,2.0,46,0.00,,,0.00,Wunderground v.1.15,2013-01-18 22:35:00,
2013-01-18 17:45:00,29.1,11.4,30.47,WNW,288,2.0,2.0,47,0.00,,,0.00,Wunderground v.1.15,2013-01-18 22:45:00,
2013-01-18 17:50:00,29.0,11.7,30.47,WNW,288,2.0,2.0,48,0.00,,,0.00,Wunderground v.1.15,2013-01-18 22:50:00,
2013-01-18 18:00:00,28.5,9.8,30.46,SSW,204,0.0,0.0,45,0.00,,,0.00,Wunderground v.1.15,2013-01-18 23:00:00,
2013-01-18 18:05:00,28.3,9.6,30.47,SSW,204,0.0,0.0,45,0.00,,,0.00,Wunderground v.1.15,2013-01-18 23:05:00,
2013-01-18 18:10:00,28.1,9.9,30.47,SSW,204,0.0,0.0,46,0.00,,,0.00,Wunderground v.1.15,2013-01-18 23:10:00,
2013-01-18 18:15:00,28.1,11.4,30.47,West,267,0.0,0.0,49,0.00,,,0.00,Wunderground v.1.15,2013-01-18 23:15:00,
2013-01-18 18:20:00,27.7,11.0,30.47,West,267,0.0,0.0,49,0.00,,,0.00,Wunderground v.1.15,2013-01-18 23:20:00,
2013-01-18 18:30:00,27.3,10.2,30.48,West,266,0.0,0.0,48,0.00,,,0.00,Wunderground v.1.15,2013-01-18 23:30:00,
2013-01-18 18:40:00,27.2,11.0,30.48,West,266,0.0,0.0,50,0.00,,,0.00,Wunderground v.1.15,2013-01-18 23:40:00,
2013-01-18 18:45:00,27.1,10.4,30.48,West,266,0.0,0.0,49,0.00,,,0.00,Wunderground v.1.15,2013-01-18 23:45:00,
2013-01-18 18:50:00,27.3,12.8,30.48,West,266,0.0,0.0,54,0.00,,,0.00,Wunderground v.1.15,2013-01-18 23:50:00,
2013-01-18 18:55:00,27.4,12.5,30.48,West,266,0.0,0.0,53,0.00,,,0.00,Wunderground v.1.15,2013-01-18 23:55:00,
2013-01-18 19:00:00,27.4,11.2,30.49,West,266,0.0,0.0,50,0.00,,,0.00,Wunderground v.1.15,2013-01-19 00:00:00,
2013-01-18 19:10:00,27.5,12.2,30.48,SSW,207,0.0,0.0,52,0.00,,,0.00,Wunderground v.1.15,2013-01-19 00:10:00,
2013-01-18 19:15:00,27.6,12.2,30.49,SSW,207,0.0,0.0,52,0.00,,,0.00,Wunderground v.1.15,2013-01-19 00:15:00,
2013-01-18 19:25:00,27.4,12.1,30.48,SSW,194,0.0,1.0,52,0.00,,,0.00,Wunderground v.1.15,2013-01-19 00:25:00,
2013-01-18 19:30:00,27.5,13.0,30.48,SW,229,0.0,0.0,54,0.00,,,0.00,Wunderground v.1.15,2013-01-19 00:30:00,
2013-01-18 19:35:00,27.6,13.9,30.48,West,267,0.0,0.0,56,0.00,,,0.00,Wunderground v.1.15,2013-01-19 00:35:00,
2013-01-18 19:40:00,27.7,13.6,30.48,SE,140,0.0,0.0,55,0.00,,,0.00,Wunderground v.1.15,2013-01-19 00:40:00,
2013-01-18 19:45:00,27.7,14.0,30.48,SSW,210,0.0,0.0,56,0.00,,,0.00,Wunderground v.1.15,2013-01-19 00:45:00,
2013-01-18 19:50:00,27.6,14.7,30.48,SW,229,0.0,0.0,58,0.00,,,0.00,Wunderground v.1.15,2013-01-19 00:50:00,
2013-01-18 20:00:00,27.7,14.4,30.47,WSW,252,1.0,1.0,57,0.00,,,0.00,Wunderground v.1.15,2013-01-19 01:00:00,
2013-01-18 20:05:00,27.6,14.3,30.47,SW,221,0.0,1.0,57,0.00,,,0.00,Wunderground v.1.15,2013-01-19 01:05:00,
2013-01-18 20:10:00,27.7,14.4,30.47,SSW,210,1.0,1.0,57,0.00,,,0.00,Wunderground v.1.15,2013-01-19 01:10:00,
2013-01-18 20:15:00,27.7,15.2,30.46,SSW,195,1.0,1.0,59,0.00,,,0.00,Wunderground v.1.15,2013-01-19 01:15:00,
2013-01-18 20:25:00,27.7,14.8,30.46,SSW,211,0.0,0.0,58,0.00,,,0.00,Wunderground v.1.15,2013-01-19 01:25:00,
2013-01-18 20:30:00,27.7,14.8,30.47,SSE,166,0.0,0.0,58,0.00,,,0.00,Wunderground v.1.15,2013-01-19 01:30:00,
2013-01-18 20:35:00,27.8,16.1,30.46,SW,225,0.0,0.0,61,0.00,,,0.00,Wunderground v.1.15,2013-01-19 01:35:00,
2013-01-18 20:40:00,27.8,14.9,30.47,SSW,204,0.0,0.0,58,0.00,,,0.00,Wunderground v.1.15,2013-01-19 01:40:00,
2013-01-18 20:50:00,27.9,15.0,30.46,SW,225,0.0,1.0,58,0.00,,,0.00,Wunderground v.1.15,2013-01-19 01:50:00,
2013-01-18 21:00:00,28.1,16.0,30.46,WSW,238,1.0,1.0,60,0.00,,,0.00,Wunderground v.1.15,2013-01-19 02:00:00,
2013-01-18 21:05:00,28.1,15.6,30.46,SSE,149,1.0,1.0,59,0.00,,,0.00,Wunderground v.1.15,2013-01-19 02:05:00,
2013-01-18 21:10:00,28.0,15.9,30.45,West,269,1.0,1.0,60,0.00,,,0.00,Wunderground v.1.15,2013-01-19 02:10:00,
2013-01-18 21:15:00,28.1,15.6,30.45,South,187,0.0,1.0,59,0.00,,,0.00,Wunderground v.1.15,2013-01-19 02:15:00,
2013-01-18 21:20:00,28.0,15.1,30.45,SSW,208,1.0,1.0,58,0.00,,,0.00,Wunderground v.1.15,2013-01-19 02:20:00,
2013-01-18 21:30:00,28.0,15.5,30.45,WSW,242,1.0,1.0,59,0.00,,,0.00,Wunderground v.1.15,2013-01-19 02:30:00,
2013-01-18 21:35:00,28.1,15.6,30.45,SW,225,1.0,1.0,59,0.00,,,0.00,Wunderground v.1.15,2013-01-19 02:35:00,
2013-01-18 21:40:00,28.2,15.3,30.45,SW,235,1.0,1.0,58,0.00,,,0.00,Wunderground v.1.15,2013-01-19 02:40:00,
2013-01-18 21:45:00,28.3,15.4,30.45,WSW,249,1.0,1.0,58,0.00,,,0.00,Wunderground v.1.15,2013-01-19 02:45:00,
2013-01-18 21:50:00,28.5,15.2,30.45,WNW,282,1.0,1.0,57,0.00,,,0.00,Wunderground v.1.15,2013-01-19 02:50:00,
2013-01-18 22:00:00,28.8,15.9,30.46,WSW,255,1.0,3.0,58,0.00,,,0.00,Wunderground v.1.15,2013-01-19 03:00:00,
2013-01-18 22:05:00,29.0,16.4,30.45,SE,139,1.0,3.0,59,0.00,,,0.00,Wunderground v.1.15,2013-01-19 03:05:00,
2013-01-18 22:10:00,29.1,16.1,30.45,SSW,205,2.0,3.0,58,0.00,,,0.00,Wunderground v.1.15,2013-01-19 03:10:00,
2013-01-18 22:15:00,29.2,17.0,30.45,West,278,1.0,3.0,60,0.00,,,0.00,Wunderground v.1.15,2013-01-19 03:15:00,
2013-01-18 22:20:00,29.2,16.2,30.45,SW,229,2.0,2.0,58,0.00,,,0.00,Wunderground v.1.15,2013-01-19 03:20:00,
2013-01-18 22:30:00,29.2,15.8,30.44,South,173,1.0,1.0,57,0.00,,,0.00,Wunderground v.1.15,2013-01-19 03:30:00,
2013-01-18 22:35:00,29.0,15.2,30.44,ESE,122,2.0,2.0,56,0.00,,,0.00,Wunderground v.1.15,2013-01-19 03:35:00,
2013-01-18 22:40:00,29.0,15.2,30.44,WSW,258,2.0,4.0,56,0.00,,,0.00,Wunderground v.1.15,2013-01-19 03:40:00,
2013-01-18 22:45:00,29.0,15.2,30.43,WSW,240,2.0,4.0,56,0.00,,,0.00,Wunderground v.1.15,2013-01-19 03:45:00,
2013-01-18 22:50:00,29.2,15.8,30.43,SW,232,2.0,2.0,57,0.00,,,0.00,Wunderground v.1.15,2013-01-19 03:50:00,
2013-01-18 22:55:00,29.3,16.3,30.43,SW,215,2.0,3.0,58,0.00,,,0.00,Wunderground v.1.15,2013-01-19 03:55:00,
2013-01-18 23:05:00,29.4,16.8,30.43,WSW,238,2.0,2.0,59,0.00,,,0.00,Wunderground v.1.15,2013-01-19 04:05:00,
2013-01-18 23:15:00,29.3,16.7,30.43,SSE,166,2.0,2.0,59,0.00,,,0.00,Wunderground v.1.15,2013-01-19 04:15:00,
2013-01-18 23:20:00,29.3,16.7,30.42,SW,228,2.0,2.0,59,0.00,,,0.00,Wunderground v.1.15,2013-01-19 04:20:00,
2013-01-18 23:25:00,29.2,16.6,30.42,SW,235,1.0,5.0,59,0.00,,,0.00,Wunderground v.1.15,2013-01-19 04:25:00,
2013-01-18 23:34:00,29.2,17.0,30.42,South,188,1.0,4.0,60,0.00,,,0.00,Wunderground v.1.15,2013-01-19 04:34:00,
2013-01-18 23:40:00,29.1,16.9,30.42,West,277,1.0,1.0,60,0.00,,,0.00,Wunderground v.1.15,2013-01-19 04:40:00,
2013-01-18 23:44:00,29.0,16.8,30.42,SSW,201,1.0,1.0,60,0.00,,,0.00,Wunderground v.1.15,2013-01-19 04:44:00,
2013-01-18 23:50:00,29.0,17.2,30.41,SE,146,2.0,2.0,61,0.00,,,0.00,Wunderground v.1.15,2013-01-19 04:50:00,
2013-01-18 23:55:00,29.0,17.2,30.41,SW,229,1.0,2.0,61,0.00,,,0.00,Wunderground v.1.15,2013-01-19 04:55:00,